Time;durP1;ratioP1;P1;durP2;ratioP2;P2;SDS_P1;SDS_P2;PMS_P1;PMS_P2;Temp;Humidity;BMP_temperature;BMP_pressure;BME280_temperature;BME280_humidity;BME280_pressure;Samples;Min_cycle;Max_cycle;Signal;HPM_P1;HPM_P2
2023/04/12 00:00:28;;;;;;;2.40;2.03;;;10.30;62.60;10.20;96029.00;;;;5025902;28;20209;-81
2023/04/12 00:02:58;;;;;;;3.30;1.70;;;10.30;62.70;10.20;96022.00;;;;5001260;28;20300;-81
2023/04/12 00:05:26;;;;;;;3.53;2.30;;;10.30;62.80;10.20;96020.00;;;;5017016;28;20194;-81
2023/04/12 00:07:54;;;;;;;2.47;1.93;;;10.30;62.90;10.20;96023.00;;;;5027142;28;20202;-82
2023/04/12 00:10:22;;;;;;;2.30;1.60;;;10.30;63.00;10.30;96018.00;;;;5030693;28;20221;-82
2023/04/12 00:12:50;;;;;;;1.87;1.50;;;10.30;63.10;10.30;96001.00;;;;5021116;28;20310;-81
2023/04/12 00:15:19;;;;;;;2.17;1.87;;;10.30;63.00;10.30;95998.00;;;;5024616;28;20284;-81
2023/04/12 00:17:46;;;;;;;1.70;1.60;;;10.30;63.00;10.30;95996.00;;;;5026540;28;20198;-82
2023/04/12 00:20:15;;;;;;;2.20;1.47;;;10.30;63.00;10.30;95994.00;;;;5017123;28;20217;-82
2023/04/12 00:22:44;;;;;;;1.60;1.50;;;10.30;63.00;10.30;95985.00;;;;5018999;28;20229;-81
2023/04/12 00:25:12;;;;;;;3.20;1.70;;;10.30;63.00;10.30;95989.00;;;;5029352;28;20213;-81
2023/04/12 00:27:39;;;;;;;3.60;1.63;;;10.30;63.10;10.30;95977.00;;;;5019010;28;20206;-81
2023/04/12 00:30:08;;;;;;;1.73;1.63;;;10.40;63.20;10.30;95977.00;;;;4993197;28;20714;-81
2023/04/12 00:32:37;;;;;;;1.70;1.60;;;10.40;63.20;10.40;95975.00;;;;5034573;28;20344;-82
2023/04/12 00:35:05;;;;;;;4.73;2.43;;;10.40;63.20;10.40;95970.00;;;;5027100;28;20710;-82
2023/04/12 00:37:35;;;;;;;3.90;1.70;;;10.40;63.20;10.40;95971.00;;;;4991693;28;20209;-82
2023/04/12 00:40:02;;;;;;;2.30;1.80;;;10.40;63.20;10.40;95965.00;;;;5032132;28;20206;-81
2023/04/12 00:42:29;;;;;;;2.70;2.07;;;10.40;63.20;10.40;95963.00;;;;5008359;28;20253;-81
2023/04/12 00:44:56;;;;;;;2.23;2.03;;;10.40;63.20;10.40;95954.00;;;;5027439;28;20201;-82
2023/04/12 00:47:23;;;;;;;1.80;1.70;;;10.40;63.20;10.40;95956.00;;;;5032445;28;20197;-81
2023/04/12 00:49:52;;;;;;;1.70;1.60;;;10.40;63.30;10.40;95954.00;;;;5018929;28;20378;-81
2023/04/12 00:52:21;;;;;;;1.70;1.60;;;10.40;63.40;10.40;95949.00;;;;5013092;28;20197;-82
2023/04/12 00:54:48;;;;;;;3.10;1.87;;;10.40;63.50;10.40;95953.00;;;;5017062;28;20272;-81
2023/04/12 00:57:15;;;;;;;3.37;1.60;;;10.50;63.50;10.50;95949.00;;;;5022381;28;20203;-81
2023/04/12 00:59:43;;;;;;;1.80;1.70;;;10.40;63.40;10.40;95962.00;;;;5018931;28;20297;-82
2023/04/12 01:02:10;;;;;;;2.20;2.00;;;10.50;63.50;10.50;95951.00;;;;5036624;28;20193;-82
2023/04/12 01:04:38;;;;;;;3.17;1.90;;;10.50;63.50;10.50;95943.00;;;;5038704;28;20231;-81
2023/04/12 01:07:22;;;;;;;1.90;1.80;;;10.50;63.50;10.50;95941.00;;;;5025254;28;20259;-81
2023/04/12 01:10:04;;;;;;;2.10;1.90;;;10.50;63.80;10.50;95944.00;;;;5020652;28;20308;-82
2023/04/12 01:12:47;;;;;;;2.00;1.70;;;10.50;63.70;10.60;95941.00;;;;5017806;28;20214;-81
2023/04/12 01:15:16;;;;;;;2.17;1.80;;;10.50;63.60;10.60;95937.00;;;;5024172;28;20216;-81
2023/04/12 01:17:55;;;;;;;1.43;1.33;;;10.50;63.50;10.60;95936.00;;;;5030455;28;20210;-81
2023/04/12 01:20:29;;;;;;;1.70;1.40;;;10.60;63.70;10.60;95926.00;;;;5027475;28;20217;-82
2023/04/12 01:23:41;;;;;;;2.00;1.40;;;10.60;63.60;10.70;95922.00;;;;5018952;28;20214;-81
2023/04/12 01:26:39;;;;;;;2.33;1.67;;;10.60;63.90;10.70;95918.00;;;;5016429;28;20602;-81
2023/04/12 01:29:12;;;;;;;2.20;1.37;;;10.70;63.80;10.70;95923.00;;;;5005225;28;20193;-81
2023/04/12 01:31:49;;;;;;;2.27;1.23;;;10.70;63.50;10.70;95921.00;;;;5032344;28;20289;-81
2023/04/12 01:34:19;;;;;;;1.73;1.43;;;10.70;63.30;10.80;95926.00;;;;5013929;28;20241;-81
2023/04/12 01:36:48;;;;;;;1.60;1.43;;;10.70;63.30;10.80;95928.00;;;;5003527;28;20225;-81
2023/04/12 01:39:16;;;;;;;1.63;1.33;;;10.70;63.30;10.80;95918.00;;;;5039984;28;20207;-82
2023/04/12 01:41:47;;;;;;;3.20;1.40;;;10.70;63.20;10.80;95918.00;;;;5018729;28;20293;-81
2023/04/12 01:44:18;;;;;;;2.03;1.57;;;10.80;63.30;10.80;95914.00;;;;5019245;28;20309;-81
2023/04/12 01:46:47;;;;;;;1.20;1.10;;;10.80;63.20;10.90;95922.00;;;;5019604;28;20304;-81
2023/04/12 01:49:16;;;;;;;2.23;1.20;;;10.80;63.20;10.90;95912.00;;;;5024469;28;20208;-81
2023/04/12 01:51:53;;;;;;;1.20;1.10;;;10.80;63.20;10.90;95917.00;;;;5030675;28;20244;-82
2023/04/12 01:54:25;;;;;;;1.13;1.03;;;10.90;63.30;10.90;95920.00;;;;5018877;28;20217;-81
2023/04/12 01:56:57;;;;;;;2.37;1.20;;;10.90;63.20;11.00;95921.00;;;;5021165;28;20234;-81
2023/04/12 01:59:32;;;;;;;1.60;1.20;;;10.90;63.20;11.00;95920.00;;;;5034847;28;20658;-81
2023/04/12 02:01:59;;;;;;;1.10;1.00;;;10.90;63.20;11.00;95920.00;;;;5018740;28;20201;-82
2023/04/12 02:04:29;;;;;;;1.47;1.20;;;11.00;63.20;11.00;95922.00;;;;5017322;28;20276;-82
2023/04/12 02:06:56;;;;;;;1.13;1.00;;;11.00;63.50;11.10;95923.00;;;;5018444;28;20206;-81
2023/04/12 02:09:24;;;;;;;1.20;0.90;;;11.00;63.60;11.10;95918.00;;;;5000993;28;20205;-81
2023/04/12 02:11:51;;;;;;;1.10;0.90;;;11.00;63.80;11.10;95914.00;;;;5018236;28;20245;-82
2023/04/12 02:14:18;;;;;;;1.10;0.83;;;11.10;63.80;11.00;95909.00;;;;5019290;28;20256;-81
2023/04/12 02:16:49;;;;;;;1.13;1.03;;;11.10;63.70;11.10;95902.00;;;;5018620;28;20686;-83
2023/04/12 02:19:18;;;;;;;1.13;1.03;;;11.00;64.00;11.10;95897.00;;;;5022141;28;20197;-82
2023/04/12 02:21:48;;;;;;;1.50;0.87;;;11.10;64.10;11.10;95898.00;;;;5001367;28;20275;-82
2023/04/12 02:24:16;;;;;;;1.83;1.00;;;11.10;64.40;11.10;95899.00;;;;5021467;28;20698;-82
2023/04/12 02:26:43;;;;;;;1.03;0.93;;;11.10;64.60;11.10;95896.00;;;;5037538;28;20205;-82
2023/04/12 02:29:12;;;;;;;1.27;1.17;;;11.10;64.70;11.10;95896.00;;;;5030542;28;20198;-82
2023/04/12 02:31:40;;;;;;;1.70;0.97;;;11.10;64.70;11.10;95900.00;;;;5018871;28;20217;-82
2023/04/12 02:34:08;;;;;;;1.83;0.90;;;11.10;64.90;11.10;95898.00;;;;5043787;28;20476;-82
2023/04/12 02:36:36;;;;;;;1.50;1.10;;;11.10;65.00;11.10;95895.00;;;;5003135;28;20205;-83
2023/04/12 02:39:04;;;;;;;1.40;1.30;;;11.10;65.10;11.10;95886.00;;;;5022079;28;20217;-81
2023/04/12 02:41:31;;;;;;;1.23;0.80;;;11.10;65.30;11.10;95895.00;;;;5021978;28;20194;-83
2023/04/12 02:43:58;;;;;;;0.93;0.87;;;11.10;65.40;11.10;95893.00;;;;5021326;28;20245;-84
2023/04/12 02:46:27;;;;;;;1.70;1.00;;;11.10;65.40;11.10;95883.00;;;;5003187;28;20212;-83
2023/04/12 02:48:54;;;;;;;1.53;1.20;;;11.00;65.70;11.00;95892.00;;;;5021347;28;20218;-83
2023/04/12 02:51:23;;;;;;;1.87;1.20;;;11.10;65.70;11.00;95893.00;;;;5029364;28;20706;-82
2023/04/12 02:53:53;;;;;;;1.17;1.10;;;11.00;65.80;11.00;95901.00;;;;5020280;28;20241;-82
2023/04/12 02:56:20;;;;;;;1.73;1.37;;;11.00;65.90;11.00;95886.00;;;;5004726;28;20285;-82
2023/04/12 02:58:48;;;;;;;4.53;1.50;;;11.00;65.90;11.00;95889.00;;;;5012790;28;20252;-82
2023/04/12 03:01:15;;;;;;;1.37;1.10;;;11.10;66.20;11.00;95886.00;;;;5030635;28;20583;-82
2023/04/12 03:03:42;;;;;;;1.20;1.10;;;11.00;66.50;11.00;95890.00;;;;5020836;28;20234;-83
2023/04/12 03:06:10;;;;;;;1.43;1.30;;;11.00;66.90;11.00;95885.00;;;;5024070;28;20198;-82
2023/04/12 03:08:38;;;;;;;1.40;1.30;;;11.00;67.00;11.00;95878.00;;;;5033926;28;20292;-83
2023/04/12 03:11:06;;;;;;;1.37;1.27;;;11.00;67.30;11.00;95876.00;;;;5021085;28;20304;-82
2023/04/12 03:13:33;;;;;;;1.27;1.10;;;11.00;67.60;11.00;95880.00;;;;5023283;28;20768;-81
2023/04/12 03:16:20;;;;;;;1.50;1.10;;;11.00;67.60;11.00;95877.00;;;;5031268;28;20276;-82
2023/04/12 03:18:47;;;;;;;1.63;0.97;;;11.00;67.70;10.90;95884.00;;;;5020768;28;20232;-82
2023/04/12 03:21:15;;;;;;;1.73;1.40;;;10.90;67.60;10.90;95881.00;;;;5018663;28;20217;-83
2023/04/12 03:23:44;;;;;;;1.37;1.27;;;10.90;67.80;10.90;95873.00;;;;5019745;28;20217;-82
2023/04/12 03:26:11;;;;;;;1.53;1.13;;;10.90;67.80;10.90;95870.00;;;;5010037;28;20268;-81
2023/04/12 03:28:38;;;;;;;1.50;1.30;;;10.90;67.90;10.90;95869.00;;;;5019147;28;20257;-81
2023/04/12 03:31:07;;;;;;;1.73;1.20;;;10.90;67.90;10.80;95862.00;;;;5035308;28;20224;-82
2023/04/12 03:33:34;;;;;;;1.30;1.20;;;10.90;68.00;10.80;95859.00;;;;5018378;28;20251;-81
2023/04/12 03:36:01;;;;;;;1.20;1.10;;;10.90;67.90;10.80;95857.00;;;;5002804;28;20201;-81
2023/04/12 03:38:28;;;;;;;1.40;1.30;;;10.80;67.90;10.80;95859.00;;;;5005311;28;20209;-81
2023/04/12 03:40:57;;;;;;;1.73;1.40;;;10.80;68.10;10.80;95863.00;;;;5018603;28;20232;-82
2023/04/12 03:43:24;;;;;;;1.73;1.50;;;10.80;68.30;10.80;95862.00;;;;5002691;28;20218;-82
2023/04/12 03:45:51;;;;;;;1.70;1.50;;;10.80;68.60;10.80;95862.00;;;;5018839;28;20225;-83
2023/04/12 03:48:19;;;;;;;1.77;1.40;;;10.80;68.60;10.80;95857.00;;;;5023702;28;20201;-82
2023/04/12 03:50:47;;;;;;;1.57;1.47;;;10.80;68.70;10.80;95857.00;;;;5020489;28;20706;-81
2023/04/12 03:53:14;;;;;;;1.87;1.60;;;10.80;68.80;10.80;95863.00;;;;5019545;28;20305;-82
2023/04/12 03:55:42;;;;;;;1.63;1.53;;;10.80;68.90;10.70;95855.00;;;;5027454;28;20201;-83
2023/04/12 03:58:12;;;;;;;1.47;1.17;;;10.80;69.20;10.70;95849.00;;;;5040382;28;20201;-83
2023/04/12 04:00:39;;;;;;;1.53;1.40;;;10.80;69.50;10.70;95850.00;;;;5020706;28;20241;-82
2023/04/12 04:03:07;;;;;;;1.60;1.47;;;10.80;69.50;10.70;95842.00;;;;5008757;28;20221;-82
2023/04/12 04:05:34;;;;;;;1.70;1.50;;;10.70;69.40;10.70;95842.00;;;;5007387;28;20232;-82
2023/04/12 04:08:01;;;;;;;1.70;1.20;;;10.70;69.70;10.70;95838.00;;;;5019335;28;20210;-82
2023/04/12 04:10:29;;;;;;;1.87;1.70;;;10.70;69.90;10.70;95830.00;;;;5002327;28;20732;-81
2023/04/12 04:12:56;;;;;;;2.00;1.40;;;10.70;70.00;10.70;95831.00;;;;5026815;28;20232;-81
2023/04/12 04:15:26;;;;;;;1.63;1.53;;;10.70;70.30;10.70;95826.00;;;;5004047;28;20265;-82
2023/04/12 04:17:53;;;;;;;1.87;1.60;;;10.70;70.50;10.70;95812.00;;;;5020662;28;20198;-82
2023/04/12 04:20:21;;;;;;;1.70;1.50;;;10.70;70.40;10.70;95815.00;;;;5038687;28;20276;-81
2023/04/12 04:22:48;;;;;;;1.67;1.57;;;10.70;70.40;10.70;95813.00;;;;5023191;28;20304;-82
2023/04/12 04:25:16;;;;;;;1.50;1.40;;;10.70;70.50;10.70;95813.00;;;;5038913;28;20255;-82
2023/04/12 04:27:44;;;;;;;2.00;1.80;;;10.70;71.50;10.70;95818.00;;;;5029121;28;20214;-82
2023/04/12 04:30:14;;;;;;;1.53;1.43;;;10.70;71.00;10.60;95813.00;;;;5001727;28;20230;-83
2023/04/12 04:32:43;;;;;;;2.30;1.73;;;10.70;71.30;10.70;95806.00;;;;5024361;28;20225;-83
2023/04/12 04:35:11;;;;;;;1.70;1.50;;;10.70;71.60;10.70;95811.00;;;;4999875;28;20248;-84
2023/04/12 04:37:40;;;;;;;1.47;1.33;;;10.70;71.70;10.70;95805.00;;;;5017448;28;20195;-82
2023/04/12 04:40:10;;;;;;;1.60;1.50;;;10.70;71.80;10.60;95814.00;;;;4999294;28;20260;-83
2023/04/12 04:42:38;;;;;;;1.77;1.40;;;10.70;71.90;10.60;95817.00;;;;5021685;28;20287;-82
2023/04/12 04:45:12;;;;;;;1.70;1.20;;;10.70;71.90;10.60;95811.00;;;;5009188;28;20547;-83
2023/04/12 04:47:39;;;;;;;1.60;1.33;;;10.70;71.90;10.60;95804.00;;;;5036071;28;20263;-82
2023/04/12 04:50:09;;;;;;;1.90;1.60;;;10.70;72.00;10.60;95805.00;;;;5026349;28;20284;-82
2023/04/12 04:52:38;;;;;;;2.23;1.77;;;10.70;72.20;10.60;95801.00;;;;5027523;28;20597;-82
2023/04/12 04:55:06;;;;;;;2.13;1.20;;;10.60;72.40;10.60;95799.00;;;;4998135;28;20198;-81
2023/04/12 04:57:33;;;;;;;2.70;1.10;;;10.70;72.60;10.60;95803.00;;;;5032332;28;20301;-81
2023/04/12 05:00:01;;;;;;;1.40;1.30;;;10.70;72.60;10.60;95804.00;;;;5002149;28;20782;-82
2023/04/12 05:02:28;;;;;;;1.23;1.13;;;10.70;72.90;10.70;95799.00;;;;5011103;28;20217;-82
2023/04/12 05:04:56;;;;;;;1.27;1.17;;;10.60;73.00;10.70;95793.00;;;;5010104;28;20198;-83
2023/04/12 05:07:25;;;;;;;3.33;1.27;;;10.70;73.30;10.70;95799.00;;;;5020326;28;20200;-82
2023/04/12 05:09:52;;;;;;;1.83;1.30;;;10.70;73.60;10.70;95795.00;;;;5029361;28;20193;-82
2023/04/12 05:12:19;;;;;;;1.57;1.07;;;10.70;73.50;10.70;95786.00;;;;5021164;28;20232;-83
2023/04/12 05:14:47;;;;;;;2.13;1.00;;;10.70;73.40;10.70;95775.00;;;;5030087;28;20205;-82
2023/04/12 05:17:14;;;;;;;2.83;1.10;;;10.70;73.40;10.80;95782.00;;;;5023913;28;20193;-81
2023/04/12 05:19:42;;;;;;;1.73;1.57;;;10.80;73.50;10.80;95775.00;;;;5025734;28;20202;-84
2023/04/12 05:22:09;;;;;;;2.03;1.60;;;10.80;73.40;10.80;95773.00;;;;5003735;28;20625;-82
2023/04/12 05:24:38;;;;;;;1.30;1.20;;;10.70;73.20;10.70;95769.00;;;;5004643;28;20194;-81
2023/04/12 05:27:05;;;;;;;2.10;1.07;;;10.80;73.40;10.70;95762.00;;;;5024419;28;20269;-82
2023/04/12 05:29:33;;;;;;;1.73;1.13;;;10.80;73.10;10.70;95767.00;;;;5039919;28;20194;-82
2023/04/12 05:32:00;;;;;;;2.30;1.50;;;10.80;73.00;10.70;95757.00;;;;5040101;28;20663;-82
2023/04/12 05:34:27;;;;;;;2.07;1.27;;;10.80;73.00;10.70;95758.00;;;;5034506;28;20194;-82
2023/04/12 05:36:54;;;;;;;1.67;1.20;;;10.80;72.90;10.70;95755.00;;;;5003160;28;20191;-83
2023/04/12 05:39:22;;;;;;;1.30;1.10;;;10.80;73.00;10.70;95756.00;;;;5024430;28;20253;-81
2023/04/12 05:41:50;;;;;;;1.93;0.93;;;10.80;73.20;10.70;95751.00;;;;5021618;28;20227;-81
2023/04/12 05:44:18;;;;;;;1.27;1.07;;;10.80;73.20;10.70;95748.00;;;;5026503;28;20240;-81
2023/04/12 05:46:46;;;;;;;1.23;0.87;;;10.80;73.20;10.70;95741.00;;;;5015667;28;20658;-81
2023/04/12 05:49:13;;;;;;;1.50;0.90;;;10.80;73.40;10.70;95743.00;;;;5030442;28;20236;-81
2023/04/12 05:51:40;;;;;;;1.90;0.90;;;10.80;73.40;10.70;95735.00;;;;5020743;28;20241;-81
2023/04/12 05:54:07;;;;;;;1.17;0.93;;;10.80;73.50;10.70;95733.00;;;;5005626;28;20218;-81
2023/04/12 05:56:35;;;;;;;1.60;0.87;;;10.80;73.50;10.80;95729.00;;;;5031246;28;20220;-82
2023/04/12 05:59:04;;;;;;;1.57;1.10;;;10.80;73.50;10.80;95718.00;;;;5024302;28;20543;-81
2023/04/12 06:01:32;;;;;;;0.80;0.80;;;10.80;73.50;10.80;95717.00;;;;5022916;28;20209;-81
2023/04/12 06:04:01;;;;;;;1.53;0.97;;;10.80;73.70;10.80;95717.00;;;;5026722;28;20213;-82
2023/04/12 06:06:29;;;;;;;1.03;0.80;;;10.80;73.80;10.80;95717.00;;;;5007297;28;20285;-81
2023/04/12 06:08:58;;;;;;;1.00;0.70;;;10.80;73.70;10.80;95716.00;;;;5029113;28;20269;-81
2023/04/12 06:11:26;;;;;;;1.37;0.80;;;10.80;73.70;10.80;95711.00;;;;5016434;28;20228;-82
2023/04/12 06:13:53;;;;;;;1.00;0.90;;;10.90;73.70;10.80;95715.00;;;;5037370;28;20247;-81
2023/04/12 06:16:22;;;;;;;1.80;0.87;;;10.80;73.60;10.80;95708.00;;;;5023611;28;20575;-81
2023/04/12 06:18:49;;;;;;;1.00;0.90;;;10.80;73.80;10.80;95695.00;;;;5016968;28;20205;-81
2023/04/12 06:21:17;;;;;;;1.40;1.00;;;10.90;74.00;10.90;95700.00;;;;5029072;28;20229;-81
2023/04/12 06:23:44;;;;;;;1.73;1.17;;;10.90;74.00;10.90;95704.00;;;;5018553;28;20241;-81
2023/04/12 06:26:11;;;;;;;1.00;0.90;;;10.90;73.90;10.90;95714.00;;;;5024891;28;20205;-82
2023/04/12 06:28:38;;;;;;;1.60;0.90;;;10.90;73.80;10.90;95705.00;;;;5015162;28;20577;-82
2023/04/12 06:31:06;;;;;;;0.73;0.67;;;10.90;73.80;10.90;95706.00;;;;5017550;28;20673;-82
2023/04/12 06:33:35;;;;;;;1.50;0.80;;;10.90;73.80;11.00;95697.00;;;;5000458;28;20234;-82
2023/04/12 06:36:02;;;;;;;0.83;0.80;;;10.90;74.10;11.00;95696.00;;;;5024070;28;20694;-82
2023/04/12 06:38:30;;;;;;;1.00;0.80;;;10.90;74.10;11.00;95694.00;;;;5026424;28;20197;-82
2023/04/12 06:40:57;;;;;;;1.43;0.70;;;11.00;74.10;11.00;95695.00;;;;5032185;28;20289;-81
2023/04/12 06:43:24;;;;;;;2.27;0.93;;;11.10;74.10;11.00;95686.00;;;;5022678;28;20210;-81
2023/04/12 06:45:52;;;;;;;0.83;0.77;;;11.00;73.90;11.00;95688.00;;;;5037439;28;20194;-82
2023/04/12 06:48:20;;;;;;;1.30;0.90;;;11.00;73.90;11.00;95679.00;;;;5024981;28;20256;-81
2023/04/12 06:50:48;;;;;;;1.33;0.90;;;11.00;73.70;11.00;95676.00;;;;5025777;28;20228;-81
2023/04/12 06:53:16;;;;;;;1.00;0.80;;;11.00;73.50;10.90;95669.00;;;;5023103;28;20322;-81
2023/04/12 06:55:43;;;;;;;2.10;0.90;;;11.00;73.70;11.00;95676.00;;;;5031776;28;20208;-81
2023/04/12 06:58:10;;;;;;;2.40;0.70;;;11.00;74.00;11.00;95663.00;;;;5038792;28;20316;-81
2023/04/12 07:00:37;;;;;;;1.90;0.80;;;11.00;74.10;11.00;95668.00;;;;5023156;28;20259;-81
2023/04/12 07:03:04;;;;;;;1.03;0.70;;;11.00;73.90;11.00;95662.00;;;;5004581;28;20241;-81
2023/04/12 07:05:32;;;;;;;1.20;0.90;;;11.10;74.00;11.10;95654.00;;;;5030134;28;20281;-81
2023/04/12 07:08:00;;;;;;;1.63;1.20;;;11.10;74.10;11.10;95657.00;;;;5020701;28;20265;-81
2023/04/12 07:10:27;;;;;;;2.17;1.17;;;11.10;74.50;11.10;95657.00;;;;5021362;28;20270;-81
2023/04/12 07:12:55;;;;;;;1.10;1.00;;;11.10;74.10;11.20;95659.00;;;;5030931;28;20724;-81
2023/04/12 07:15:23;;;;;;;1.73;1.10;;;11.10;74.30;11.20;95656.00;;;;5035124;28;20225;-81
2023/04/12 07:17:50;;;;;;;1.00;0.90;;;11.10;74.20;11.20;95648.00;;;;5001824;28;20205;-81
2023/04/12 07:20:18;;;;;;;1.77;1.00;;;11.10;74.30;11.20;95645.00;;;;5028596;28;20190;-81
2023/04/12 07:22:45;;;;;;;2.13;0.80;;;11.10;74.10;11.20;95649.00;;;;5019699;28;20312;-81
2023/04/12 07:25:14;;;;;;;1.10;1.00;;;11.20;74.30;11.30;95644.00;;;;5018976;28;20224;-81
2023/04/12 07:27:41;;;;;;;1.00;0.90;;;11.20;74.50;11.30;95642.00;;;;5002041;28;20210;-81
2023/04/12 07:30:11;;;;;;;1.40;0.67;;;11.30;74.60;11.40;95634.00;;;;5024965;28;20608;-81
2023/04/12 07:32:38;;;;;;;2.53;1.10;;;11.30;74.50;11.50;95641.00;;;;5034310;28;20230;-81
2023/04/12 07:35:06;;;;;;;1.77;0.70;;;11.30;74.60;11.60;95635.00;;;;5031127;28;20228;-80
2023/04/12 07:37:33;;;;;;;1.53;0.90;;;11.40;74.60;11.70;95640.00;;;;5018314;28;20212;-81
2023/04/12 07:40:01;;;;;;;2.07;1.07;;;11.40;74.50;11.70;95624.00;;;;5031045;28;20252;-81
2023/04/12 07:42:30;;;;;;;1.23;0.70;;;11.50;74.50;11.80;95622.00;;;;5017267;28;20312;-81
2023/04/12 07:44:57;;;;;;;0.80;0.80;;;11.50;74.90;11.90;95625.00;;;;5035675;28;20220;-82
2023/04/12 07:47:24;;;;;;;1.17;1.07;;;11.60;74.80;11.90;95612.00;;;;5023740;28;20206;-82
2023/04/12 07:49:51;;;;;;;2.90;1.57;;;11.60;75.00;12.00;95609.00;;;;5018360;28;20229;-81
2023/04/12 07:52:18;;;;;;;3.10;2.10;;;11.70;74.60;12.00;95595.00;;;;5019774;28;20225;-80
2023/04/12 07:54:50;;;;;;;2.50;1.87;;;11.70;74.40;12.10;95598.00;;;;5022041;28;20573;-81
2023/04/12 07:57:18;;;;;;;1.70;1.30;;;11.70;74.30;12.10;95601.00;;;;5036254;28;20198;-80
2023/04/12 07:59:47;;;;;;;1.93;1.53;;;11.80;74.30;12.20;95596.00;;;;5004185;28;20281;-81
2023/04/12 08:02:14;;;;;;;2.17;1.40;;;11.80;74.50;12.20;95608.00;;;;5020681;28;20209;-81
2023/04/12 08:04:44;;;;;;;1.50;0.90;;;11.90;74.40;12.30;95602.00;;;;5021957;28;20570;-80
2023/04/12 08:07:11;;;;;;;1.70;1.60;;;11.90;73.90;12.30;95598.00;;;;5029892;28;20229;-81
2023/04/12 08:09:40;;;;;;;2.40;1.90;;;12.00;73.80;12.40;95595.00;;;;5022738;28;20261;-80
2023/04/12 08:12:08;;;;;;;2.03;1.47;;;12.00;73.80;12.40;95597.00;;;;5031995;28;20252;-81
2023/04/12 08:14:35;;;;;;;4.00;1.93;;;12.10;74.00;12.40;95605.00;;;;5036404;28;20663;-81
2023/04/12 08:17:04;;;;;;;3.00;2.70;;;12.10;73.90;12.50;95600.00;;;;5034321;28;20193;-81
2023/04/12 08:19:31;;;;;;;4.20;2.27;;;12.10;73.50;12.50;95598.00;;;;5016876;28;20216;-82
2023/04/12 08:21:58;;;;;;;2.43;1.93;;;12.20;73.50;12.50;95590.00;;;;5025662;28;20288;-81
2023/04/12 08:24:26;;;;;;;1.13;1.03;;;12.20;73.70;12.60;95589.00;;;;5032877;28;20314;-81
2023/04/12 08:26:53;;;;;;;1.57;1.10;;;12.20;74.00;12.70;95589.00;;;;5017194;28;20269;-80
2023/04/12 08:29:20;;;;;;;1.97;1.83;;;12.30;74.30;12.70;95588.00;;;;4994962;28;20233;-81
2023/04/12 08:31:47;;;;;;;1.23;1.10;;;12.30;74.20;12.70;95587.00;;;;5027613;28;20248;-81
2023/04/12 08:34:16;;;;;;;2.20;1.10;;;12.40;74.00;12.80;95573.00;;;;5021300;28;20304;-82
2023/04/12 08:36:43;;;;;;;0.90;0.80;;;12.40;73.90;12.80;95580.00;;;;5019826;28;20236;-81
2023/04/12 08:39:11;;;;;;;2.60;0.90;;;12.40;73.80;12.80;95574.00;;;;5034506;28;20221;-81
2023/04/12 08:41:39;;;;;;;1.57;1.30;;;12.50;73.80;12.80;95560.00;;;;5034319;28;20311;-81
2023/04/12 08:44:07;;;;;;;1.57;1.37;;;12.50;73.80;12.80;95562.00;;;;5001818;28;20248;-81
2023/04/12 08:46:36;;;;;;;1.80;1.37;;;12.50;73.80;12.80;95554.00;;;;5026087;28;20202;-82
2023/04/12 08:49:03;;;;;;;1.87;1.17;;;12.60;74.00;12.90;95551.00;;;;5036593;28;20202;-81
2023/04/12 08:51:35;;;;;;;0.70;0.60;;;12.60;73.80;12.90;95545.00;;;;5039108;28;20207;-82
2023/04/12 08:54:02;;;;;;;2.20;0.80;;;12.60;73.70;12.90;95543.00;;;;5049599;28;20233;-82
2023/04/12 08:56:31;;;;;;;1.20;1.10;;;12.60;73.50;13.00;95534.00;;;;5024277;28;20205;-81
2023/04/12 08:58:59;;;;;;;1.87;1.43;;;12.70;73.70;13.00;95536.00;;;;5027987;28;20237;-80
2023/04/12 09:01:27;;;;;;;4.43;3.37;;;12.70;73.60;13.00;95529.00;;;;5029005;28;20292;-81
2023/04/12 09:03:57;;;;;;;1.60;1.20;;;12.70;73.60;13.00;95534.00;;;;5021151;28;20219;-80
2023/04/12 09:06:31;;;;;;;1.10;1.03;;;12.70;73.70;13.00;95526.00;;;;5030228;28;20262;-80
2023/04/12 09:08:59;;;;;;;1.43;1.10;;;12.70;73.60;13.10;95521.00;;;;5040454;28;20201;-80
2023/04/12 09:11:28;;;;;;;2.60;2.40;;;12.80;74.00;13.10;95512.00;;;;5029709;28;20350;-81
2023/04/12 09:13:57;;;;;;;2.37;2.17;;;12.80;74.30;13.10;95518.00;;;;5040936;28;20244;-81
2023/04/12 09:16:40;;;;;;;2.30;1.67;;;12.80;74.30;13.20;95514.00;;;;5036699;28;20194;-81
2023/04/12 09:19:09;;;;;;;3.17;1.60;;;12.90;74.60;13.20;95510.00;;;;5034848;28;20691;-81
2023/04/12 09:21:52;;;;;;;2.53;2.30;;;12.90;74.40;13.20;95515.00;;;;5035763;28;20248;-81
2023/04/12 09:24:22;;;;;;;2.60;2.30;;;12.90;74.40;13.20;95517.00;;;;5028176;28;20256;-81
2023/04/12 09:27:03;;;;;;;2.30;2.00;;;12.90;74.10;13.30;95502.00;;;;5028880;28;20224;-81
2023/04/12 09:29:32;;;;;;;2.77;2.47;;;12.90;74.70;13.30;95484.00;;;;5027390;28;20197;-80
2023/04/12 09:32:02;;;;;;;1.77;1.47;;;12.90;74.50;13.30;95475.00;;;;5023959;28;20248;-80
2023/04/12 09:34:31;;;;;;;2.00;0.90;;;13.00;74.80;13.40;95465.00;;;;5048496;28;20194;-80
2023/04/12 09:37:00;;;;;;;1.77;1.53;;;13.00;75.00;13.40;95468.00;;;;5049556;28;20229;-80
2023/04/12 09:39:35;;;;;;;2.70;2.50;;;13.00;75.40;13.40;95469.00;;;;5045006;28;20670;-81
2023/04/12 09:42:08;;;;;;;2.03;1.80;;;13.10;75.80;13.40;95478.00;;;;5038352;28;20400;-81
2023/04/12 09:44:36;;;;;;;2.10;2.00;;;13.10;75.70;13.40;95469.00;;;;5041464;28;20189;-81
2023/04/12 09:47:04;;;;;;;1.60;1.40;;;13.10;75.40;13.50;95474.00;;;;5026360;28;20305;-81
2023/04/12 09:49:39;;;;;;;2.10;1.90;;;13.10;75.20;13.70;95473.00;;;;5011932;28;20410;-81
2023/04/12 09:52:10;;;;;;;1.20;1.07;;;13.20;75.50;13.80;95466.00;;;;5034502;28;20194;-81
2023/04/12 09:54:42;;;;;;;1.27;1.10;;;13.30;75.40;13.90;95466.00;;;;5023404;28;20644;-81
2023/04/12 09:57:10;;;;;;;1.30;1.17;;;13.30;75.30;14.00;95468.00;;;;5015418;28;20205;-81
2023/04/12 09:59:41;;;;;;;1.70;1.60;;;13.40;75.80;14.20;95460.00;;;;5023074;28;20285;-81
2023/04/12 10:02:15;;;;;;;1.70;1.60;;;13.60;76.20;14.30;95451.00;;;;5017299;28;20202;-81
2023/04/12 10:04:43;;;;;;;1.20;1.10;;;13.70;76.20;14.50;95437.00;;;;5028417;28;20208;-82
2023/04/12 10:07:12;;;;;;;1.70;1.40;;;13.80;76.40;14.70;95439.00;;;;5027147;28;20206;-81
2023/04/12 10:09:40;;;;;;;0.50;0.50;;;14.00;76.40;15.00;95438.00;;;;5018988;28;20205;-81
2023/04/12 10:12:10;;;;;;;2.83;2.53;;;14.10;75.90;15.10;95428.00;;;;4998622;28;20201;-81
2023/04/12 10:14:38;;;;;;;1.50;1.23;;;14.30;75.50;15.30;95429.00;;;;5035922;28;20292;-82
2023/04/12 10:17:09;;;;;;;1.43;1.33;;;14.50;75.50;15.50;95411.00;;;;5017185;28;20198;-82
2023/04/12 10:19:39;;;;;;;0.90;0.83;;;14.60;75.70;15.60;95416.00;;;;5021105;28;20201;-82
2023/04/12 10:22:07;;;;;;;1.07;1.00;;;14.80;75.70;15.80;95410.00;;;;5019836;28;20281;-82
2023/04/12 10:24:35;;;;;;;2.00;1.70;;;15.00;75.20;15.90;95414.00;;;;5027467;28;20320;-82
2023/04/12 10:27:03;;;;;;;2.67;2.47;;;15.10;74.20;16.00;95412.00;;;;5021609;28;20214;-82
2023/04/12 10:29:35;;;;;;;1.30;1.20;;;15.20;73.80;16.10;95406.00;;;;5017700;28;20301;-82
2023/04/12 10:32:21;;;;;;;2.07;1.97;;;15.40;74.00;16.20;95402.00;;;;5019327;28;20202;-83
2023/04/12 10:34:55;;;;;;;1.00;1.00;;;15.50;74.10;16.30;95398.00;;;;5020912;28;20678;-82
2023/04/12 10:37:22;;;;;;;1.20;1.10;;;15.60;73.00;16.40;95401.00;;;;5033687;28;20806;-82
2023/04/12 10:39:55;;;;;;;1.40;0.73;;;15.70;72.90;16.50;95398.00;;;;5018291;28;20655;-81
2023/04/12 10:42:26;;;;;;;0.97;0.97;;;15.80;72.50;16.60;95405.00;;;;5034228;28;20304;-82
2023/04/12 10:44:56;;;;;;;1.13;1.03;;;15.90;72.50;16.60;95392.00;;;;5020514;28;20198;-82
2023/04/12 10:48:02;;;;;;;1.63;1.20;;;16.00;72.40;16.70;95378.00;;;;5009873;28;20289;-82
2023/04/12 10:50:34;;;;;;;1.10;1.00;;;16.10;72.20;16.80;95375.00;;;;5016605;28;20224;-82
2023/04/12 10:53:24;;;;;;;1.37;1.27;;;16.10;72.00;16.70;95370.00;;;;5038001;28;20729;-81
2023/04/12 10:55:53;;;;;;;0.67;0.67;;;16.20;70.60;16.70;95393.00;;;;5037651;28;20189;-81
2023/04/12 10:59:01;;;;;;;0.77;0.77;;;16.20;70.40;16.70;95386.00;;;;5028846;28;20201;-81
2023/04/12 11:01:30;;;;;;;1.00;0.90;;;16.20;68.90;16.60;95368.00;;;;5000366;28;20277;-82
2023/04/12 11:04:23;;;;;;;0.73;0.70;;;16.20;69.40;16.60;95363.00;;;;5024386;28;20221;-82